Time;durP1;ratioP1;P1;durP2;ratioP2;P2;SDS_P1;SDS_P2;PMS_P1;PMS_P2;Temp;Humidity;BMP_temperature;BMP_pressure;BME280_temperature;BME280_humidity;BME280_pressure;Samples;Min_cycle;Max_cycle;Signal;HPM_P1;HPM_P2
2023/08/22 00:00:00;;;;;;;14.75;6.85;;;;;;;;;;5002127;28;20157;-59
2023/08/22 00:02:28;;;;;;;11.82;6.35;;;;;;;;;;5002279;28;20054;-61
2023/08/22 00:04:57;;;;;;;13.45;6.35;;;;;;;;;;5003392;28;20116;-61
2023/08/22 00:07:26;;;;;;;14.40;6.03;;;;;;;;;;5002659;28;20517;-58
2023/08/22 00:09:55;;;;;;;10.32;6.32;;;;;;;;;;5002370;28;20357;-58
2023/08/22 00:12:23;;;;;;;13.40;6.47;;;;;;;;;;5004111;28;20046;-58
2023/08/22 00:14:52;;;;;;;10.48;6.50;;;;;;;;;;5001833;28;20127;-59
2023/08/22 00:17:20;;;;;;;12.80;7.00;;;;;;;;;;4999811;28;20135;-60
2023/08/22 00:19:49;;;;;;;16.00;7.13;;;;;;;;;;5000931;28;20467;-62
2023/08/22 00:22:17;;;;;;;13.48;7.03;;;;;;;;;;5002778;28;20074;-58
2023/08/22 00:24:47;;;;;;;11.70;7.13;;;;;;;;;;5001546;28;20101;-61
2023/08/22 00:27:15;;;;;;;12.02;7.40;;;;;;;;;;4999423;28;20076;-64
2023/08/22 00:29:44;;;;;;;12.43;6.47;;;;;;;;;;4996661;28;20594;-64
2023/08/22 00:32:12;;;;;;;13.52;6.75;;;;;;;;;;4999750;28;20081;-58
2023/08/22 00:34:41;;;;;;;9.57;6.43;;;;;;;;;;4999879;28;20326;-64
2023/08/22 00:37:09;;;;;;;11.73;7.28;;;;;;;;;;5002432;28;20804;-58
2023/08/22 00:39:38;;;;;;;16.92;7.15;;;;;;;;;;4998443;28;20074;-60
2023/08/22 00:42:08;;;;;;;15.55;7.25;;;;;;;;;;5002269;28;20128;-60
2023/08/22 00:44:36;;;;;;;10.20;6.55;;;;;;;;;;5003896;28;20081;-58
2023/08/22 00:47:05;;;;;;;10.57;6.65;;;;;;;;;;5002189;28;20085;-62
2023/08/22 00:49:33;;;;;;;17.95;6.45;;;;;;;;;;5002580;28;20053;-61
2023/08/22 00:52:03;;;;;;;11.35;6.93;;;;;;;;;;4994897;28;20627;-58
2023/08/22 00:54:31;;;;;;;10.45;6.97;;;;;;;;;;5003149;28;20050;-58
2023/08/22 00:57:00;;;;;;;12.38;7.18;;;;;;;;;;5001042;28;20054;-60
2023/08/22 00:59:29;;;;;;;15.25;7.20;;;;;;;;;;4996932;28;20070;-59
2023/08/22 01:01:58;;;;;;;17.98;6.97;;;;;;;;;;5017168;23;20030;-63
2023/08/22 01:04:26;;;;;;;13.98;6.20;;;;;;;;;;5015795;28;20480;-63
2023/08/22 01:06:58;;;;;;;10.15;6.68;;;;;;;;;;5023553;28;20081;-62
2023/08/22 01:09:28;;;;;;;11.57;7.45;;;;;;;;;;5021769;28;20049;-59
2023/08/22 01:12:01;;;;;;;13.25;6.72;;;;;;;;;;5023581;28;20054;-60
2023/08/22 01:14:32;;;;;;;12.90;7.03;;;;;;;;;;5019311;28;20096;-62
2023/08/22 01:17:00;;;;;;;12.15;7.05;;;;;;;;;;5020163;28;20092;-60
2023/08/22 01:19:29;;;;;;;10.43;6.90;;;;;;;;;;5025242;28;20144;-61
2023/08/22 01:21:59;;;;;;;11.23;6.57;;;;;;;;;;5022687;28;20593;-66
2023/08/22 01:24:28;;;;;;;12.20;6.88;;;;;;;;;;5021114;28;20045;-59
2023/08/22 01:26:56;;;;;;;12.95;6.50;;;;;;;;;;5022128;28;20576;-57
2023/08/22 01:29:28;;;;;;;11.25;6.63;;;;;;;;;;5018921;28;20506;-59
2023/08/22 01:31:59;;;;;;;12.07;6.53;;;;;;;;;;5021406;28;20291;-58
2023/08/22 01:34:30;;;;;;;11.57;6.45;;;;;;;;;;5019154;28;20042;-57
2023/08/22 01:37:00;;;;;;;11.20;6.55;;;;;;;;;;5023248;28;20383;-57
2023/08/22 01:39:28;;;;;;;12.13;6.97;;;;;;;;;;5025892;28;20102;-58
2023/08/22 01:41:58;;;;;;;12.15;6.53;;;;;;;;;;5022782;28;20054;-59
2023/08/22 01:44:28;;;;;;;10.77;6.50;;;;;;;;;;5025771;28;20049;-60
2023/08/22 01:46:56;;;;;;;11.52;6.57;;;;;;;;;;5024339;28;20049;-58
2023/08/22 01:49:25;;;;;;;11.02;6.95;;;;;;;;;;5024076;28;20049;-60
2023/08/22 01:51:54;;;;;;;12.57;6.78;;;;;;;;;;5024005;28;20552;-59
2023/08/22 01:54:23;;;;;;;11.65;6.53;;;;;;;;;;5025801;28;20041;-60
2023/08/22 01:56:52;;;;;;;9.10;6.45;;;;;;;;;;5026037;28;20053;-61
2023/08/22 01:59:20;;;;;;;11.50;6.32;;;;;;;;;;5020406;28;20065;-61
2023/08/22 02:01:49;;;;;;;13.48;7.03;;;;;;;;;;5022270;28;20081;-60
2023/08/22 02:04:17;;;;;;;10.05;6.20;;;;;;;;;;5024137;28;20084;-60
2023/08/22 02:06:46;;;;;;;9.00;6.18;;;;;;;;;;5022591;28;20099;-60
2023/08/22 02:09:14;;;;;;;12.68;6.57;;;;;;;;;;5023899;28;20384;-61
2023/08/22 02:11:44;;;;;;;11.65;6.68;;;;;;;;;;5024327;28;20058;-62
2023/08/22 02:14:13;;;;;;;9.70;6.82;;;;;;;;;;5022688;28;20044;-59
2023/08/22 02:16:41;;;;;;;12.48;6.78;;;;;;;;;;5024299;28;20563;-59
2023/08/22 02:19:10;;;;;;;9.23;5.78;;;;;;;;;;5023840;28;20041;-59
2023/08/22 02:21:39;;;;;;;10.85;5.65;;;;;;;;;;5016649;28;20465;-57
2023/08/22 02:24:07;;;;;;;9.63;6.15;;;;;;;;;;5024159;28;20383;-59
2023/08/22 02:26:37;;;;;;;13.63;6.72;;;;;;;;;;5024970;28;20578;-59
2023/08/22 02:29:07;;;;;;;8.60;6.10;;;;;;;;;;5023293;28;20049;-58
2023/08/22 02:31:35;;;;;;;9.85;6.13;;;;;;;;;;5024496;28;20049;-63
2023/08/22 02:34:03;;;;;;;9.68;6.50;;;;;;;;;;5024746;28;20482;-61
2023/08/22 02:36:32;;;;;;;8.32;5.60;;;;;;;;;;5024029;28;20498;-62
2023/08/22 02:39:00;;;;;;;13.52;6.47;;;;;;;;;;5024736;28;20486;-62
2023/08/22 02:41:28;;;;;;;11.07;5.30;;;;;;;;;;5024481;28;20504;-60
2023/08/22 02:43:57;;;;;;;8.07;5.30;;;;;;;;;;5024863;28;20453;-60
2023/08/22 02:46:26;;;;;;;10.23;5.53;;;;;;;;;;5022324;28;20123;-59
2023/08/22 02:48:55;;;;;;;9.25;5.55;;;;;;;;;;5026349;28;20103;-60
2023/08/22 02:51:23;;;;;;;8.52;5.85;;;;;;;;;;5022648;28;20136;-59
2023/08/22 02:53:52;;;;;;;10.73;5.28;;;;;;;;;;5021596;28;20037;-61
2023/08/22 02:56:20;;;;;;;10.43;6.15;;;;;;;;;;5024939;28;20045;-60
2023/08/22 02:58:49;;;;;;;8.68;5.53;;;;;;;;;;5020335;28;20041;-62
2023/08/22 03:01:17;;;;;;;14.60;5.68;;;;;;;;;;5022442;28;20049;-59
2023/08/22 03:03:50;;;;;;;10.18;5.72;;;;;;;;;;5024824;28;20057;-62
2023/08/22 03:06:18;;;;;;;8.38;5.40;;;;;;;;;;5024228;28;20119;-60
2023/08/22 03:08:47;;;;;;;8.55;5.65;;;;;;;;;;5024139;28;20477;-60
2023/08/22 03:11:15;;;;;;;10.32;5.57;;;;;;;;;;5023566;28;20064;-61
2023/08/22 03:13:44;;;;;;;9.45;5.80;;;;;;;;;;5024078;28;20115;-60
2023/08/22 03:16:12;;;;;;;8.35;5.38;;;;;;;;;;5022174;28;20065;-60
2023/08/22 03:18:40;;;;;;;9.02;5.45;;;;;;;;;;5020632;28;20128;-61
2023/08/22 03:21:10;;;;;;;10.13;5.50;;;;;;;;;;5021082;28;20381;-60
2023/08/22 03:23:38;;;;;;;10.63;5.35;;;;;;;;;;5023461;28;20056;-61
2023/08/22 03:26:10;;;;;;;13.30;6.05;;;;;;;;;;5018927;28;20486;-59
2023/08/22 03:28:39;;;;;;;8.60;5.50;;;;;;;;;;5024351;28;20061;-60
2023/08/22 03:31:07;;;;;;;10.65;5.65;;;;;;;;;;5022529;28;20476;-61
2023/08/22 03:33:36;;;;;;;11.27;5.30;;;;;;;;;;5023313;28;20140;-61
2023/08/22 03:36:05;;;;;;;10.75;6.20;;;;;;;;;;5025172;28;20391;-61
2023/08/22 03:38:35;;;;;;;6.57;4.55;;;;;;;;;;5024252;28;20061;-64
2023/08/22 03:41:03;;;;;;;15.18;5.03;;;;;;;;;;5024158;28;20057;-60
2023/08/22 03:43:32;;;;;;;9.20;4.78;;;;;;;;;;5022459;28;20081;-63
2023/08/22 03:46:00;;;;;;;9.32;5.57;;;;;;;;;;5023340;28;20077;-61
2023/08/22 03:48:29;;;;;;;8.35;5.65;;;;;;;;;;5023845;28;20045;-62
2023/08/22 03:50:59;;;;;;;8.27;5.20;;;;;;;;;;5023501;28;20077;-60
2023/08/22 03:53:28;;;;;;;10.70;5.13;;;;;;;;;;5023057;28;20049;-59
2023/08/22 03:55:58;;;;;;;8.82;5.47;;;;;;;;;;5021609;28;20501;-60
2023/08/22 03:58:26;;;;;;;8.85;5.35;;;;;;;;;;5022851;28;20641;-60
2023/08/22 04:00:55;;;;;;;8.93;5.45;;;;;;;;;;5022814;28;20115;-60
2023/08/22 04:03:23;;;;;;;10.48;5.53;;;;;;;;;;5024493;28;20630;-60
2023/08/22 04:05:52;;;;;;;8.68;5.25;;;;;;;;;;5023970;28;20663;-60
2023/08/22 04:08:20;;;;;;;6.70;4.85;;;;;;;;;;5020301;28;20487;-59
2023/08/22 04:10:49;;;;;;;9.38;5.20;;;;;;;;;;5021486;28;20064;-59
2023/08/22 04:13:19;;;;;;;8.63;5.93;;;;;;;;;;5023952;28;20069;-61
2023/08/22 04:15:47;;;;;;;7.55;5.35;;;;;;;;;;5020996;28;20077;-60
2023/08/22 04:18:15;;;;;;;8.27;5.65;;;;;;;;;;5023553;28;20095;-60
2023/08/22 04:20:44;;;;;;;15.43;6.10;;;;;;;;;;5021337;28;20132;-60
2023/08/22 04:23:12;;;;;;;9.00;5.28;;;;;;;;;;5023860;28;20060;-59
2023/08/22 04:25:41;;;;;;;13.43;5.85;;;;;;;;;;5021319;28;20053;-60
2023/08/22 04:28:10;;;;;;;7.85;5.60;;;;;;;;;;5022081;28;20478;-60
2023/08/22 04:30:42;;;;;;;11.18;5.55;;;;;;;;;;5019660;28;20417;-62
2023/08/22 04:33:11;;;;;;;9.30;5.22;;;;;;;;;;5021185;28;20055;-61
2023/08/22 04:35:39;;;;;;;11.73;5.03;;;;;;;;;;5023635;28;20049;-62
2023/08/22 04:38:08;;;;;;;10.95;5.53;;;;;;;;;;5015078;28;20459;-62
2023/08/22 04:40:36;;;;;;;9.60;4.90;;;;;;;;;;5020900;28;20065;-60
2023/08/22 04:43:05;;;;;;;11.70;5.70;;;;;;;;;;5021057;28;20099;-60
2023/08/22 04:45:33;;;;;;;8.07;5.28;;;;;;;;;;5019179;28;20053;-59
2023/08/22 04:48:03;;;;;;;7.82;4.95;;;;;;;;;;5022000;28;20572;-59
2023/08/22 04:50:31;;;;;;;11.20;6.13;;;;;;;;;;5022892;28;20417;-60
2023/08/22 04:53:00;;;;;;;10.98;5.68;;;;;;;;;;5024083;28;20048;-63
2023/08/22 04:55:29;;;;;;;11.70;5.18;;;;;;;;;;5022349;28;20053;-62
2023/08/22 04:57:57;;;;;;;9.57;5.68;;;;;;;;;;5018266;28;20555;-60
2023/08/22 05:00:25;;;;;;;11.15;5.38;;;;;;;;;;5022256;28;20049;-62
2023/08/22 05:02:54;;;;;;;10.02;5.32;;;;;;;;;;5023621;28;20498;-60
2023/08/22 05:05:24;;;;;;;7.80;5.80;;;;;;;;;;5021688;28;20052;-60
2023/08/22 05:07:52;;;;;;;13.63;5.50;;;;;;;;;;5018376;28;20041;-62
2023/08/22 05:10:21;;;;;;;14.75;5.53;;;;;;;;;;5022959;28;20127;-59
2023/08/22 05:12:49;;;;;;;9.27;5.70;;;;;;;;;;5025218;28;20567;-61
2023/08/22 05:15:18;;;;;;;12.73;5.72;;;;;;;;;;5021604;28;20045;-60
2023/08/22 05:17:46;;;;;;;8.75;5.90;;;;;;;;;;5022911;28;20060;-62
2023/08/22 05:20:14;;;;;;;11.10;5.68;;;;;;;;;;5023277;28;20123;-60
2023/08/22 05:22:44;;;;;;;10.40;6.13;;;;;;;;;;5024250;28;20457;-62
2023/08/22 05:25:13;;;;;;;14.18;6.65;;;;;;;;;;5026146;28;20085;-61
2023/08/22 05:27:41;;;;;;;10.20;5.35;;;;;;;;;;5024512;28;20045;-62
2023/08/22 05:30:10;;;;;;;10.65;6.07;;;;;;;;;;5021570;28;20052;-60
2023/08/22 05:32:39;;;;;;;11.05;5.78;;;;;;;;;;5024164;28;20541;-60
2023/08/22 05:35:08;;;;;;;11.45;5.72;;;;;;;;;;5024717;28;20133;-65
2023/08/22 05:37:37;;;;;;;13.07;5.57;;;;;;;;;;5021116;28;20053;-65
2023/08/22 05:40:08;;;;;;;10.23;6.00;;;;;;;;;;5022190;28;20466;-61
2023/08/22 05:42:37;;;;;;;14.52;5.68;;;;;;;;;;5022865;28;20427;-59
2023/08/22 05:45:06;;;;;;;10.38;5.88;;;;;;;;;;5024803;28;20053;-61
2023/08/22 05:47:35;;;;;;;9.27;5.40;;;;;;;;;;5023514;28;20642;-61
2023/08/22 05:50:04;;;;;;;9.95;5.30;;;;;;;;;;5025779;28;20120;-65
2023/08/22 05:52:32;;;;;;;9.40;5.35;;;;;;;;;;5023011;28;20060;-63
2023/08/22 05:55:01;;;;;;;8.88;5.75;;;;;;;;;;5017629;28;20076;-64
2023/08/22 05:57:31;;;;;;;13.77;5.93;;;;;;;;;;5020813;28;20053;-61
2023/08/22 06:00:00;;;;;;;9.90;5.28;;;;;;;;;;5017920;28;20107;-61
2023/08/22 06:02:28;;;;;;;10.90;6.60;;;;;;;;;;5015957;28;20046;-60
2023/08/22 06:04:56;;;;;;;12.57;5.90;;;;;;;;;;5018450;28;20236;-63
2023/08/22 06:07:26;;;;;;;10.80;6.07;;;;;;;;;;5018911;28;20049;-61
2023/08/22 06:09:54;;;;;;;7.85;5.65;;;;;;;;;;5019173;28;20041;-60
2023/08/22 06:12:22;;;;;;;13.40;6.30;;;;;;;;;;5020005;28;20053;-63
2023/08/22 06:14:52;;;;;;;14.63;6.30;;;;;;;;;;5022783;28;20042;-61
2023/08/22 06:17:21;;;;;;;10.80;6.07;;;;;;;;;;5021612;28;20080;-59
2023/08/22 06:19:49;;;;;;;11.02;6.18;;;;;;;;;;5014544;28;20655;-64
2023/08/22 06:22:18;;;;;;;12.52;6.28;;;;;;;;;;5012899;28;20406;-59
2023/08/22 06:24:46;;;;;;;12.13;6.60;;;;;;;;;;5017646;28;20041;-60
2023/08/22 06:27:14;;;;;;;11.50;6.55;;;;;;;;;;5012479;28;20477;-62
2023/08/22 06:29:43;;;;;;;10.70;6.57;;;;;;;;;;5019001;28;20052;-62
2023/08/22 06:32:13;;;;;;;11.52;6.38;;;;;;;;;;5021726;28;20056;-62
2023/08/22 06:34:41;;;;;;;13.25;6.63;;;;;;;;;;5018563;28;20077;-59
2023/08/22 06:37:10;;;;;;;8.80;6.05;;;;;;;;;;5021701;28;20053;-60
2023/08/22 06:39:39;;;;;;;10.10;6.63;;;;;;;;;;5025161;28;20132;-60
2023/08/22 06:42:07;;;;;;;9.60;5.78;;;;;;;;;;5022527;28;20123;-61
2023/08/22 06:44:36;;;;;;;9.27;6.38;;;;;;;;;;5023017;28;20038;-61
2023/08/22 06:47:04;;;;;;;12.70;6.75;;;;;;;;;;5024725;28;20511;-61
2023/08/22 06:49:34;;;;;;;11.35;6.72;;;;;;;;;;5024854;28;20041;-59
2023/08/22 06:52:02;;;;;;;12.88;7.40;;;;;;;;;;5018847;28;20053;-60
2023/08/22 06:54:32;;;;;;;11.68;6.93;;;;;;;;;;5025867;28;20041;-60
2023/08/22 06:57:00;;;;;;;10.95;6.60;;;;;;;;;;5020759;28;20053;-60
2023/08/22 06:59:29;;;;;;;10.23;7.00;;;;;;;;;;5022023;28;20073;-58
2023/08/22 07:01:58;;;;;;;11.52;6.75;;;;;;;;;;5020517;28;20453;-59
2023/08/22 07:04:26;;;;;;;18.17;8.52;;;;;;;;;;5021567;28;20050;-62
2023/08/22 07:06:56;;;;;;;11.20;7.63;;;;;;;;;;5021241;28;20175;-58
2023/08/22 07:09:25;;;;;;;10.70;6.95;;;;;;;;;;5021743;28;20197;-60
2023/08/22 07:11:53;;;;;;;13.20;7.75;;;;;;;;;;5024137;28;20041;-60
2023/08/22 07:14:21;;;;;;;12.18;6.85;;;;;;;;;;5025104;28;20115;-59
2023/08/22 07:16:50;;;;;;;12.25;7.30;;;;;;;;;;5022118;28;20457;-59
2023/08/22 07:19:19;;;;;;;12.02;7.72;;;;;;;;;;5021671;28;20041;-59
2023/08/22 07:22:09;;;;;;;12.02;7.40;;;;;;;;;;5018090;28;20050;-59
2023/08/22 07:24:37;;;;;;;12.30;7.75;;;;;;;;;;5020305;28;20065;-58
2023/08/22 07:27:06;;;;;;;12.68;7.88;;;;;;;;;;5020910;28;20077;-59
2023/08/22 07:29:34;;;;;;;13.25;7.80;;;;;;;;;;5022029;28;20049;-58
2023/08/22 07:32:03;;;;;;;14.88;7.57;;;;;;;;;;5019586;28;20150;-59
2023/08/22 07:34:31;;;;;;;9.40;7.40;;;;;;;;;;5024237;28;20049;-59
2023/08/22 07:37:00;;;;;;;11.25;7.30;;;;;;;;;;5020651;28;20100;-62
2023/08/22 07:39:29;;;;;;;12.40;7.35;;;;;;;;;;5021976;28;20119;-60
2023/08/22 07:41:58;;;;;;;16.95;7.95;;;;;;;;;;5023093;28;20064;-58
2023/08/22 07:44:26;;;;;;;12.65;7.85;;;;;;;;;;5022134;28;20049;-58
2023/08/22 07:46:55;;;;;;;12.55;7.30;;;;;;;;;;5020071;28;20045;-61
2023/08/22 07:49:23;;;;;;;13.55;7.32;;;;;;;;;;5022008;28;20099;-58
2023/08/22 07:51:52;;;;;;;10.35;7.47;;;;;;;;;;5020366;28;20506;-58
2023/08/22 07:54:20;;;;;;;15.13;7.68;;;;;;;;;;5023372;28;20041;-60
2023/08/22 07:56:50;;;;;;;20.20;7.93;;;;;;;;;;5023124;28;20056;-59
2023/08/22 07:59:32;;;;;;;11.32;7.47;;;;;;;;;;5019835;28;20452;-62
2023/08/22 08:02:00;;;;;;;11.55;6.90;;;;;;;;;;5023691;28;20497;-60
2023/08/22 08:04:29;;;;;;;15.95;8.00;;;;;;;;;;5020979;28;20130;-59
2023/08/22 08:06:57;;;;;;;15.32;6.90;;;;;;;;;;5021913;28;20486;-59
2023/08/22 08:09:25;;;;;;;13.38;7.30;;;;;;;;;;5021117;28;20053;-61
2023/08/22 08:12:04;;;;;;;15.20;7.80;;;;;;;;;;5017400;28;20049;-59
2023/08/22 08:14:33;;;;;;;11.25;7.40;;;;;;;;;;5020976;28;20049;-63
2023/08/22 08:17:02;;;;;;;12.43;7.47;;;;;;;;;;5021554;28;20046;-60
2023/08/22 08:19:30;;;;;;;10.05;6.65;;;;;;;;;;5021944;28;20145;-60
2023/08/22 08:21:59;;;;;;;15.70;7.65;;;;;;;;;;5020205;28;20072;-61
2023/08/22 08:24:27;;;;;;;12.23;7.00;;;;;;;;;;5021053;28;20159;-59
2023/08/22 08:26:56;;;;;;;15.23;8.23;;;;;;;;;;5022600;28;20042;-58
2023/08/22 08:29:26;;;;;;;11.60;7.30;;;;;;;;;;5021482;28;20532;-61
2023/08/22 08:31:56;;;;;;;10.57;6.95;;;;;;;;;;5016342;28;20054;-62
2023/08/22 08:34:24;;;;;;;14.25;7.03;;;;;;;;;;5018823;28;20136;-58
2023/08/22 08:36:53;;;;;;;11.15;7.32;;;;;;;;;;5022942;28;20041;-58
2023/08/22 08:39:21;;;;;;;14.10;6.95;;;;;;;;;;5021054;28;20321;-57
2023/08/22 08:41:54;;;;;;;13.60;7.15;;;;;;;;;;5022139;28;20491;-58
2023/08/22 08:44:23;;;;;;;11.80;7.97;;;;;;;;;;5021307;28;20053;-57
2023/08/22 08:46:53;;;;;;;13.13;7.00;;;;;;;;;;5023015;28;20073;-58
2023/08/22 08:49:22;;;;;;;13.70;7.25;;;;;;;;;;5024796;28;20099;-58
2023/08/22 08:51:51;;;;;;;15.65;7.75;;;;;;;;;;5025668;28;20449;-58
2023/08/22 08:54:21;;;;;;;11.70;8.23;;;;;;;;;;5026966;28;20453;-58
2023/08/22 08:56:49;;;;;;;12.25;7.18;;;;;;;;;;5024701;28;20160;-60
2023/08/22 08:59:18;;;;;;;11.52;7.85;;;;;;;;;;5025993;28;20122;-59
2023/08/22 09:01:46;;;;;;;13.95;7.68;;;;;;;;;;5026859;28;20065;-60
2023/08/22 09:04:16;;;;;;;12.75;7.32;;;;;;;;;;5026793;28;20057;-61
2023/08/22 09:06:46;;;;;;;9.30;6.60;;;;;;;;;;5024776;28;20041;-58
2023/08/22 09:09:15;;;;;;;10.20;7.32;;;;;;;;;;5023976;28;20103;-58
2023/08/22 09:11:44;;;;;;;10.40;6.65;;;;;;;;;;5026407;28;20060;-58
2023/08/22 09:14:19;;;;;;;12.95;7.22;;;;;;;;;;5024768;28;20509;-57
2023/08/22 09:16:47;;;;;;;10.50;7.30;;;;;;;;;;5022907;28;20103;-58
2023/08/22 09:19:17;;;;;;;8.95;6.82;;;;;;;;;;5025596;28;20046;-58
2023/08/22 09:21:58;;;;;;;10.80;7.28;;;;;;;;;;5021675;28;20052;-59
2023/08/22 09:24:27;;;;;;;10.32;6.88;;;;;;;;;;5025216;28;20165;-62
2023/08/22 09:26:55;;;;;;;11.95;6.57;;;;;;;;;;5022879;28;20460;-58
2023/08/22 09:29:28;;;;;;;11.50;6.15;;;;;;;;;;5025316;28;20480;-61
2023/08/22 09:32:05;;;;;;;10.13;6.50;;;;;;;;;;5025504;28;20050;-57
2023/08/22 09:34:35;;;;;;;9.38;5.85;;;;;;;;;;5022808;28;20064;-58
2023/08/22 09:37:04;;;;;;;13.50;5.82;;;;;;;;;;5025823;28;20060;-57
2023/08/22 09:39:33;;;;;;;10.77;6.00;;;;;;;;;;5023520;28;20692;-58
2023/08/22 09:42:01;;;;;;;8.75;5.97;;;;;;;;;;5023072;28;20498;-62
2023/08/22 09:44:30;;;;;;;10.60;6.85;;;;;;;;;;5023469;28;20419;-58
2023/08/22 09:46:59;;;;;;;11.07;6.38;;;;;;;;;;5023680;28;20049;-58
2023/08/22 09:49:28;;;;;;;10.40;6.47;;;;;;;;;;5025300;28;20057;-57
2023/08/22 09:51:58;;;;;;;17.67;6.75;;;;;;;;;;5026022;28;20053;-58
2023/08/22 09:54:27;;;;;;;12.43;7.10;;;;;;;;;;5024929;28;20049;-59
2023/08/22 09:56:56;;;;;;;14.82;7.57;;;;;;;;;;5027619;28;20091;-59
2023/08/22 09:59:25;;;;;;;10.80;6.72;;;;;;;;;;5023225;28;20095;-59
2023/08/22 10:01:54;;;;;;;8.57;6.70;;;;;;;;;;5025359;28;20115;-60
2023/08/22 10:04:23;;;;;;;8.52;6.32;;;;;;;;;;5024861;28;20056;-60
2023/08/22 10:06:53;;;;;;;11.32;6.72;;;;;;;;;;5025010;28;20041;-60
2023/08/22 10:09:24;;;;;;;9.68;7.43;;;;;;;;;;5023537;28;20045;-64
2023/08/22 10:11:54;;;;;;;10.82;7.55;;;;;;;;;;5023075;28;20073;-61
2023/08/22 10:14:27;;;;;;;9.38;6.93;;;;;;;;;;5022983;28;20453;-63
2023/08/22 10:16:56;;;;;;;12.52;6.75;;;;;;;;;;5024142;28;20490;-62
2023/08/22 10:19:25;;;;;;;8.07;6.38;;;;;;;;;;5021909;28;20048;-63
2023/08/22 10:21:54;;;;;;;158.68;111.82;;;;;;;;;;5024833;28;20104;-66
2023/08/22 10:24:29;;;;;;;16.48;11.02;;;;;;;;;;5025652;28;20042;-62
2023/08/22 10:27:02;;;;;;;11.02;7.95;;;;;;;;;;5025966;28;20060;-61
2023/08/22 10:29:34;;;;;;;23.52;17.17;;;;;;;;;;5023577;28;20056;-61
2023/08/22 10:32:22;;;;;;;13.82;9.00;;;;;;;;;;5021362;28;20053;-62
2023/08/22 10:35:04;;;;;;;15.85;13.23;;;;;;;;;;5023052;28;20107;-64
2023/08/22 10:37:34;;;;;;;8.68;6.35;;;;;;;;;;5020566;28;20077;-62
2023/08/22 10:40:06;;;;;;;22.95;12.93;;;;;;;;;;5021229;28;20064;-62
2023/08/22 10:42:37;;;;;;;8.80;6.78;;;;;;;;;;5023708;28;20057;-63
2023/08/22 10:45:17;;;;;;;8.32;6.47;;;;;;;;;;5021279;28;20426;-59
2023/08/22 10:47:49;;;;;;;11.10;6.03;;;;;;;;;;5021419;28;20164;-61
2023/08/22 10:50:17;;;;;;;9.32;5.70;;;;;;;;;;5024044;28;20061;-60
2023/08/22 10:52:46;;;;;;;9.25;5.57;;;;;;;;;;5023667;28;20037;-59
2023/08/22 10:55:16;;;;;;;9.05;5.72;;;;;;;;;;5023387;28;20045;-62
2023/08/22 10:57:46;;;;;;;6.93;5.20;;;;;;;;;;5020010;28;20046;-63
2023/08/22 11:00:22;;;;;;;12.45;5.47;;;;;;;;;;5024295;28;20038;-64
2023/08/22 11:02:51;;;;;;;9.13;5.20;;;;;;;;;;5025781;28;20510;-64
2023/08/22 11:05:20;;;;;;;8.63;5.95;;;;;;;;;;5021119;28;20482;-59
2023/08/22 11:07:49;;;;;;;6.53;5.15;;;;;;;;;;5023498;28;20506;-61
2023/08/22 11:10:19;;;;;;;8.35;5.20;;;;;;;;;;5023490;28;20580;-62
2023/08/22 11:12:49;;;;;;;6.82;5.00;;;;;;;;;;5025148;28;20045;-61
2023/08/22 11:15:18;;;;;;;8.98;4.78;;;;;;;;;;5022027;28;20050;-64
2023/08/22 11:17:48;;;;;;;7.28;5.70;;;;;;;;;;5022505;28;20131;-60
2023/08/22 11:20:20;;;;;;;8.52;5.07;;;;;;;;;;5021511;28;20053;-60
2023/08/22 11:22:49;;;;;;;8.82;5.78;;;;;;;;;;5024051;28;20085;-61
2023/08/22 11:25:24;;;;;;;6.88;5.20;;;;;;;;;;5023509;28;20100;-60
2023/08/22 11:27:53;;;;;;;9.23;5.57;;;;;;;;;;5020136;28;20045;-60
2023/08/22 11:30:21;;;;;;;6.65;5.70;;;;;;;;;;5020615;28;20402;-61
2023/08/22 11:32:50;;;;;;;9.30;5.28;;;;;;;;;;5023027;28;20050;-65
2023/08/22 11:35:18;;;;;;;7.38;4.78;;;;;;;;;;5025056;28;20059;-60
2023/08/22 11:37:47;;;;;;;9.38;5.15;;;;;;;;;;5019708;28;20049;-61
2023/08/22 11:40:16;;;;;;;9.15;5.25;;;;;;;;;;5022676;28;20145;-60
2023/08/22 11:42:47;;;;;;;7.40;5.10;;;;;;;;;;5023214;28;20049;-61
2023/08/22 11:45:17;;;;;;;7.82;5.35;;;;;;;;;;5021699;28;20124;-63
2023/08/22 11:47:47;;;;;;;7.38;5.72;;;;;;;;;;5021574;28;20464;-60
2023/08/22 11:50:17;;;;;;;7.47;4.93;;;;;;;;;;5023189;28;20284;-61
2023/08/22 11:52:49;;;;;;;7.35;5.18;;;;;;;;;;5021411;28;20045;-60
2023/08/22 11:55:18;;;;;;;9.23;5.20;;;;;;;;;;5021351;28;20045;-60
2023/08/22 11:57:49;;;;;;;6.65;5.07;;;;;;;;;;5021013;28;20342;-63
2023/08/22 12:00:18;;;;;;;6.20;5.25;;;;;;;;;;5020333;28;20053;-60
2023/08/22 12:02:50;;;;;;;10.35;5.57;;;;;;;;;;5022220;28;20418;-61
2023/08/22 12:05:30;;;;;;;7.20;5.50;;;;;;;;;;5024855;28;20049;-61
2023/08/22 12:07:58;;;;;;;7.63;5.43;;;;;;;;;;5023051;28;20353;-59
2023/08/22 12:10:27;;;;;;;13.52;5.93;;;;;;;;;;5021898;28;20054;-61
2023/08/22 12:12:56;;;;;;;7.63;5.68;;;;;;;;;;5022877;28;20049;-61
2023/08/22 12:15:25;;;;;;;7.13;5.00;;;;;;;;;;5022759;28;20052;-60
2023/08/22 12:17:54;;;;;;;8.18;4.78;;;;;;;;;;5022239;28;20099;-61
2023/08/22 12:20:22;;;;;;;10.07;4.90;;;;;;;;;;5022868;28;20053;-60
2023/08/22 12:22:51;;;;;;;5.32;4.32;;;;;;;;;;5015604;28;20639;-59
2023/08/22 12:25:19;;;;;;;6.38;4.43;;;;;;;;;;5017902;28;20134;-62
2023/08/22 12:27:48;;;;;;;8.45;4.40;;;;;;;;;;5020961;28;20521;-62
2023/08/22 12:30:17;;;;;;;9.00;4.75;;;;;;;;;;5023924;28;20068;-61
2023/08/22 12:32:46;;;;;;;10.68;5.32;;;;;;;;;;5020236;28;20041;-63
2023/08/22 12:35:15;;;;;;;9.60;4.97;;;;;;;;;;5025838;28;20439;-61
2023/08/22 12:37:43;;;;;;;7.20;5.85;;;;;;;;;;5022887;28;20096;-61
2023/08/22 12:40:12;;;;;;;10.00;5.72;;;;;;;;;;5021978;28;20053;-60
2023/08/22 12:42:41;;;;;;;6.72;4.97;;;;;;;;;;5021462;28;20061;-61
2023/08/22 12:45:10;;;;;;;6.70;4.97;;;;;;;;;;5024972;28;20050;-60
2023/08/22 12:47:40;;;;;;;8.50;4.97;;;;;;;;;;5021078;28;20433;-63
2023/08/22 12:50:09;;;;;;;8.10;5.07;;;;;;;;;;5023264;28;20061;-60
2023/08/22 12:52:38;;;;;;;10.07;5.22;;;;;;;;;;5022177;28;20426;-60
2023/08/22 12:55:08;;;;;;;8.85;5.45;;;;;;;;;;5023383;28;20049;-60
2023/08/22 12:57:37;;;;;;;7.03;5.00;;;;;;;;;;5022279;28;20139;-58
2023/08/22 13:00:08;;;;;;;8.40;4.90;;;;;;;;;;5023700;28;20041;-57
2023/08/22 13:02:37;;;;;;;5.75;5.10;;;;;;;;;;5020333;28;20477;-58
2023/08/22 13:05:07;;;;;;;7.80;5.63;;;;;;;;;;5020716;28;20132;-57
2023/08/22 13:07:36;;;;;;;8.70;4.90;;;;;;;;;;5023349;28;20034;-59
2023/08/22 13:10:05;;;;;;;6.63;5.03;;;;;;;;;;5021887;28;20049;-58
2023/08/22 13:12:35;;;;;;;7.53;5.22;;;;;;;;;;5024127;28;20399;-58
2023/08/22 13:15:04;;;;;;;9.88;5.35;;;;;;;;;;5023460;28;20057;-59
2023/08/22 13:17:32;;;;;;;7.50;4.82;;;;;;;;;;5023195;28;20041;-62
2023/08/22 13:20:01;;;;;;;5.22;4.55;;;;;;;;;;5020881;28;20041;-63
2023/08/22 13:22:30;;;;;;;7.00;4.82;;;;;;;;;;5021594;28;20258;-58
2023/08/22 13:24:59;;;;;;;8.07;4.90;;;;;;;;;;5027115;28;20110;-61
2023/08/22 13:27:28;;;;;;;6.28;4.93;;;;;;;;;;5022958;28;20076;-59
2023/08/22 13:29:56;;;;;;;6.25;4.93;;;;;;;;;;5020945;28;20505;-61
2023/08/22 13:32:25;;;;;;;7.20;4.70;;;;;;;;;;5021224;28;20041;-59
2023/08/22 13:34:53;;;;;;;9.40;5.30;;;;;;;;;;5026818;28;20053;-58
2023/08/22 13:37:23;;;;;;;8.68;5.30;;;;;;;;;;5024367;28;20068;-59
2023/08/22 13:39:53;;;;;;;8.73;5.03;;;;;;;;;;5024468;28;20042;-58
2023/08/22 13:42:22;;;;;;;10.25;5.43;;;;;;;;;;5024172;28;20049;-59
2023/08/22 13:44:51;;;;;;;8.90;5.38;;;;;;;;;;5028569;28;20042;-59
2023/08/22 13:47:19;;;;;;;8.00;5.68;;;;;;;;;;5027052;28;20528;-60
2023/08/22 13:49:47;;;;;;;7.70;4.75;;;;;;;;;;5026446;28;20693;-61
2023/08/22 13:52:16;;;;;;;10.40;5.70;;;;;;;;;;5023707;28;20073;-59
2023/08/22 13:54:44;;;;;;;7.93;5.60;;;;;;;;;;5023197;28;20079;-61
2023/08/22 13:57:14;;;;;;;6.00;4.72;;;;;;;;;;5023050;28;21284;-59
2023/08/22 13:59:44;;;;;;;8.30;4.93;;;;;;;;;;5025476;28;20045;-60
2023/08/22 14:02:12;;;;;;;6.53;4.80;;;;;;;;;;5024093;28;20049;-60
2023/08/22 14:04:40;;;;;;;7.28;5.30;;;;;;;;;;5025980;28;20042;-60
2023/08/22 14:07:10;;;;;;;6.45;4.70;;;;;;;;;;5024259;28;20568;-60
2023/08/22 14:09:39;;;;;;;8.93;5.40;;;;;;;;;;5024607;28;20633;-58
2023/08/22 14:12:07;;;;;;;7.70;5.68;;;;;;;;;;5025321;28;20085;-59
2023/08/22 14:14:37;;;;;;;8.20;5.05;;;;;;;;;;5023216;28;20151;-58
2023/08/22 14:17:05;;;;;;;6.47;4.28;;;;;;;;;;5023485;28;20049;-59
2023/08/22 14:19:34;;;;;;;7.68;5.00;;;;;;;;;;5025459;28;20828;-58
2023/08/22 14:22:02;;;;;;;7.75;4.75;;;;;;;;;;5024121;28;20546;-59
2023/08/22 14:24:31;;;;;;;6.93;5.13;;;;;;;;;;5023837;28;20053;-59
2023/08/22 14:26:59;;;;;;;7.30;5.25;;;;;;;;;;5022810;28;20568;-59
2023/08/22 14:29:27;;;;;;;7.03;5.68;;;;;;;;;;5021986;28;20057;-61
2023/08/22 14:31:57;;;;;;;8.80;5.22;;;;;;;;;;5023803;28;20042;-60
2023/08/22 14:34:26;;;;;;;6.40;4.78;;;;;;;;;;5025885;28;20052;-60
2023/08/22 14:36:54;;;;;;;9.10;4.95;;;;;;;;;;5023642;28;20045;-59
2023/08/22 14:39:27;;;;;;;6.82;4.60;;;;;;;;;;5025560;28;20591;-60
2023/08/22 14:41:56;;;;;;;9.57;4.60;;;;;;;;;;5022036;28;20049;-63
2023/08/22 14:44:24;;;;;;;8.40;5.68;;;;;;;;;;5024988;28;20057;-63
2023/08/22 14:46:53;;;;;;;7.47;5.22;;;;;;;;;;5024666;28;20045;-60